Terminal Aerodrome Forecast
Issued by NWS Lake Charles, LA

Home | Current Version | Previous Version | Text Only | Print | Product List | Glossary On
Versions: 1 2 3 4 5 6 7 8 9 10 11 12 13
000
FTUS44 KLCH 281700
TAFARA
TAF
KARA 281736Z 2818/2918 15007KT P6SM SKC
     FM290400 17005KT P6SM SCT015
      TEMPO 2909/2913 5SM BR
     FM291500 18012KT P6SM BKN025=

USA.gov is the U.S. government's official web portal to all federal, state and local government web resources and services.